createdAt,value
2018-03-27T00:00:38.506Z,99.90
2018-03-27T00:01:41.716Z,99.90
2018-03-27T00:02:44.966Z,99.90
2018-03-27T00:03:48.250Z,99.90
2018-03-27T00:04:51.477Z,99.90
2018-03-27T00:05:54.720Z,99.90
2018-03-27T00:06:57.960Z,99.90
2018-03-27T00:08:01.217Z,99.90
2018-03-27T00:09:05.200Z,99.90
2018-03-27T00:10:09.168Z,99.90
2018-03-27T00:11:12.464Z,99.90
2018-03-27T00:12:15.673Z,99.90
2018-03-27T00:13:19.649Z,99.90
2018-03-27T00:14:22.860Z,99.90
2018-03-27T00:15:26.882Z,99.90
2018-03-27T00:16:30.869Z,99.90
2018-03-27T00:17:34.064Z,99.90
2018-03-27T00:18:37.287Z,99.90
2018-03-27T00:19:40.497Z,99.90
2018-03-27T00:20:44.491Z,99.90
2018-03-27T00:21:48.581Z,99.90
2018-03-27T00:22:51.821Z,99.90
2018-03-27T00:23:55.047Z,99.90
2018-03-27T00:24:59.770Z,99.90
2018-03-27T00:26:03.014Z,99.90
2018-03-27T00:27:05.742Z,99.90
2018-03-27T00:28:21.606Z,99.90
2018-03-27T00:29:36.683Z,99.90
2018-03-27T00:30:52.543Z,99.90
2018-03-27T00:32:07.625Z,99.90
2018-03-27T00:33:23.539Z,99.90
2018-03-27T00:34:38.544Z,99.90
2018-03-27T00:35:53.755Z,99.90
2018-03-27T00:37:08.780Z,99.90
2018-03-27T00:38:24.659Z,99.90
2018-03-27T00:39:40.465Z,99.90
2018-03-27T00:40:43.199Z,99.90
2018-03-27T00:43:29.491Z,99.90
2018-03-27T00:44:32.731Z,99.90
2018-03-27T00:45:35.940Z,99.90
2018-03-27T00:46:39.177Z,99.90
2018-03-27T00:47:42.410Z,99.90
2018-03-27T00:48:45.644Z,99.90
2018-03-27T00:49:48.870Z,99.90
2018-03-27T00:50:52.106Z,99.90
2018-03-27T00:51:55.633Z,99.90
2018-03-27T00:52:59.004Z,99.90
2018-03-27T00:54:02.218Z,99.90
2018-03-27T00:55:05.442Z,99.90
2018-03-27T00:56:08.662Z,99.90
2018-03-27T00:57:11.912Z,99.90
2018-03-27T00:58:15.871Z,99.90
2018-03-27T00:59:19.084Z,99.90
2018-03-27T01:00:23.069Z,99.90
2018-03-27T01:01:27.076Z,99.90
2018-03-27T01:02:30.271Z,99.90
2018-03-27T01:03:33.519Z,99.90
2018-03-27T01:04:36.732Z,99.90
2018-03-27T01:05:39.956Z,99.90
2018-03-27T01:06:43.163Z,99.90
2018-03-27T01:07:46.379Z,99.90
2018-03-27T01:08:49.648Z,99.90
2018-03-27T01:09:53.630Z,99.90
2018-03-27T01:10:56.983Z,99.90
2018-03-27T01:12:00.157Z,99.90
2018-03-27T01:13:03.386Z,99.90
2018-03-27T01:14:06.602Z,99.90
2018-03-27T01:15:10.583Z,99.90
2018-03-27T01:16:14.560Z,99.90
2018-03-27T01:17:17.772Z,99.90
2018-03-27T01:18:21.759Z,99.90
2018-03-27T01:19:25.765Z,99.90
2018-03-27T01:20:28.974Z,99.90
2018-03-27T01:21:32.184Z,99.90
2018-03-27T01:22:35.419Z,99.90
2018-03-27T01:23:39.403Z,99.90
2018-03-27T01:24:42.686Z,99.90
2018-03-27T01:25:45.888Z,99.90
2018-03-27T01:26:49.877Z,99.90
2018-03-27T01:27:53.861Z,99.90
2018-03-27T01:28:57.098Z,99.90
2018-03-27T01:30:00.332Z,99.90
2018-03-27T01:31:03.557Z,99.90
2018-03-27T01:32:06.790Z,99.90
2018-03-27T01:33:10.104Z,99.90
2018-03-27T01:34:14.097Z,99.90
2018-03-27T01:35:18.081Z,99.90
2018-03-27T01:36:21.305Z,99.90
2018-03-27T01:37:24.530Z,99.90
2018-03-27T01:38:27.738Z,99.90
2018-03-27T01:39:31.739Z,99.90
2018-03-27T01:40:34.990Z,99.90
2018-03-27T01:41:38.230Z,99.90
2018-03-27T01:42:41.435Z,99.90
2018-03-27T01:43:44.663Z,99.90
2018-03-27T01:44:47.902Z,99.90
2018-03-27T01:45:51.135Z,99.90
2018-03-27T01:46:54.371Z,99.90
2018-03-27T01:47:57.616Z,99.90
2018-03-27T01:49:01.616Z,99.90
2018-03-27T01:50:05.592Z,99.90
2018-03-27T01:51:08.807Z,99.90
2018-03-27T01:52:12.032Z,99.90
2018-03-27T01:53:15.248Z,99.90
2018-03-27T01:54:18.511Z,99.90
2018-03-27T01:55:21.697Z,99.90
2018-03-27T01:56:24.960Z,99.90
2018-03-27T01:57:28.154Z,99.90
2018-03-27T01:58:31.398Z,99.90
2018-03-27T01:59:34.624Z,99.90
2018-03-27T02:00:37.840Z,99.90
2018-03-27T02:01:41.813Z,99.90
2018-03-27T02:02:45.067Z,99.90
2018-03-27T02:03:48.311Z,99.90
2018-03-27T02:04:52.298Z,99.90
2018-03-27T02:05:55.552Z,99.90
2018-03-27T02:06:58.734Z,99.90
2018-03-27T02:08:01.959Z,99.90
2018-03-27T02:09:05.960Z,99.90
2018-03-27T02:10:09.957Z,99.90
2018-03-27T02:11:19.752Z,99.90
2018-03-27T02:12:28.649Z,99.90
2018-03-27T02:13:37.489Z,99.90
2018-03-27T02:14:46.395Z,99.90
2018-03-27T02:15:55.270Z,99.90
2018-03-27T02:17:04.111Z,99.90
2018-03-27T02:18:12.997Z,99.90
2018-03-27T02:19:21.838Z,99.90
2018-03-27T02:20:30.830Z,99.90
2018-03-27T02:21:34.335Z,99.90
2018-03-27T02:22:38.021Z,99.90
2018-03-27T02:23:41.295Z,99.90
2018-03-27T02:24:45.300Z,99.90
2018-03-27T02:25:48.669Z,99.90
2018-03-27T02:26:51.863Z,99.90
2018-03-27T02:27:55.842Z,99.90
2018-03-27T02:28:59.830Z,99.90
2018-03-27T02:30:03.050Z,99.90
2018-03-27T02:31:06.272Z,99.90
2018-03-27T02:32:09.526Z,99.90
2018-03-27T02:33:12.776Z,99.90
2018-03-27T02:34:15.990Z,99.90
2018-03-27T02:35:19.232Z,99.90
2018-03-27T02:36:22.449Z,99.90
2018-03-27T02:37:25.669Z,99.90
2018-03-27T02:38:28.905Z,99.90
2018-03-27T02:39:32.913Z,99.90
2018-03-27T02:40:36.151Z,99.90
2018-03-27T02:41:39.460Z,99.90
2018-03-27T02:42:43.454Z,99.90
2018-03-27T02:43:47.449Z,99.90
2018-03-27T02:44:51.461Z,99.90
2018-03-27T02:45:55.438Z,99.90
2018-03-27T02:46:58.691Z,99.90
2018-03-27T02:48:01.943Z,99.90
2018-03-27T02:49:05.127Z,99.90
2018-03-27T02:50:08.344Z,99.90
2018-03-27T02:51:11.581Z,99.90
2018-03-27T02:52:15.687Z,99.90
2018-03-27T02:53:19.675Z,99.90
2018-03-27T02:54:23.656Z,99.90
2018-03-27T02:55:26.888Z,99.90
2018-03-27T02:56:30.093Z,99.90
2018-03-27T02:57:33.321Z,99.90
2018-03-27T02:58:37.353Z,99.90
2018-03-27T02:59:41.548Z,99.90
2018-03-27T03:00:45.603Z,99.90
2018-03-27T03:01:48.831Z,99.90
2018-03-27T03:02:52.853Z,99.90
2018-03-27T03:03:56.080Z,99.90
2018-03-27T03:04:59.301Z,99.90
2018-03-27T03:06:02.531Z,99.90
2018-03-27T03:07:05.766Z,99.90
2018-03-27T03:08:09.769Z,99.90
2018-03-27T03:09:13.763Z,99.90
2018-03-27T03:10:17.736Z,99.90
2018-03-27T03:11:20.963Z,99.90
2018-03-27T03:12:24.221Z,99.90
2018-03-27T03:13:28.206Z,99.90
2018-03-27T03:14:31.493Z,99.90
2018-03-27T03:15:34.724Z,99.90
2018-03-27T03:16:37.919Z,99.90
2018-03-27T03:17:41.198Z,99.90
2018-03-27T03:18:44.723Z,99.90
2018-03-27T03:19:47.965Z,99.90
2018-03-27T03:20:51.161Z,99.90
2018-03-27T03:21:54.382Z,99.90
2018-03-27T03:22:58.395Z,99.90
2018-03-27T03:24:02.386Z,99.90
2018-03-27T03:25:05.637Z,99.90
2018-03-27T03:26:08.862Z,99.90
2018-03-27T03:27:12.072Z,99.90
2018-03-27T03:28:15.508Z,99.90
2018-03-27T03:29:18.674Z,99.90
2018-03-27T03:30:21.915Z,99.90
2018-03-27T03:31:25.282Z,99.90
2018-03-27T03:32:28.509Z,99.90
2018-03-27T03:33:31.810Z,99.90
2018-03-27T03:34:35.117Z,99.90
2018-03-27T03:35:38.629Z,99.90
2018-03-27T03:36:42.855Z,99.90
2018-03-27T03:37:46.072Z,99.90
2018-03-27T03:38:49.301Z,99.90
2018-03-27T03:39:53.292Z,99.90
2018-03-27T03:40:57.343Z,99.90
2018-03-27T03:42:00.716Z,99.90
2018-03-27T03:43:03.923Z,99.90
2018-03-27T03:44:07.157Z,99.90
2018-03-27T03:45:11.280Z,99.90
2018-03-27T03:46:14.637Z,99.90
2018-03-27T03:47:18.082Z,99.90
2018-03-27T03:48:21.478Z,99.90
2018-03-27T03:49:24.719Z,99.90
2018-03-27T03:50:28.176Z,99.90
2018-03-27T03:51:31.393Z,99.90
2018-03-27T03:52:34.769Z,99.90
2018-03-27T03:53:38.733Z,99.90
2018-03-27T03:54:41.963Z,99.90
2018-03-27T03:55:45.195Z,99.90
2018-03-27T03:56:48.483Z,99.90
2018-03-27T03:57:51.669Z,99.90
2018-03-27T03:58:55.666Z,99.90
2018-03-27T04:00:30.005Z,99.90
2018-03-27T04:01:33.997Z,99.90
2018-03-27T04:02:37.211Z,99.90
2018-03-27T04:03:40.452Z,99.90
2018-03-27T04:04:43.652Z,99.90
2018-03-27T04:05:47.635Z,99.90
2018-03-27T04:06:51.626Z,99.90
2018-03-27T04:07:54.848Z,99.90
2018-03-27T04:08:58.124Z,99.90
2018-03-27T04:10:01.354Z,99.90
2018-03-27T04:11:04.591Z,99.90
2018-03-27T04:12:08.046Z,99.90
2018-03-27T04:13:11.359Z,99.90
2018-03-27T04:14:14.623Z,99.90
2018-03-27T04:15:18.604Z,99.90
2018-03-27T04:16:21.832Z,99.90
2018-03-27T04:17:25.055Z,99.90
2018-03-27T04:18:28.269Z,99.90
2018-03-27T04:19:32.259Z,99.90
2018-03-27T04:20:35.464Z,99.90
2018-03-27T04:21:39.437Z,99.90
2018-03-27T04:22:42.691Z,99.90
2018-03-27T04:23:45.920Z,99.90
2018-03-27T04:24:49.944Z,99.90
2018-03-27T04:25:53.195Z,99.90
2018-03-27T04:26:56.761Z,99.90
2018-03-27T04:28:00.042Z,99.90
2018-03-27T04:29:03.242Z,99.90
2018-03-27T04:30:06.463Z,99.90
2018-03-27T04:31:09.963Z,99.90
2018-03-27T04:32:13.201Z,99.90
2018-03-27T04:33:16.439Z,99.90
2018-03-27T04:34:19.647Z,99.90
2018-03-27T04:35:23.648Z,99.90
2018-03-27T04:36:26.883Z,99.90
2018-03-27T04:37:30.085Z,99.90
2018-03-27T04:38:33.312Z,99.90
2018-03-27T04:39:36.546Z,99.90
2018-03-27T04:40:39.828Z,99.90
2018-03-27T04:41:43.161Z,99.90
2018-03-27T04:42:46.380Z,99.90
2018-03-27T04:43:49.615Z,99.90
2018-03-27T04:44:52.845Z,99.90
2018-03-27T04:45:56.078Z,99.90
2018-03-27T04:46:59.302Z,99.90
2018-03-27T04:48:03.281Z,99.90
2018-03-27T04:49:06.501Z,99.90
2018-03-27T04:50:09.749Z,99.90
2018-03-27T04:51:12.958Z,99.90
2018-03-27T04:52:16.942Z,99.90
2018-03-27T04:53:21.139Z,99.90
2018-03-27T04:54:24.640Z,99.90
2018-03-27T04:55:27.865Z,99.90
2018-03-27T04:56:31.331Z,99.90
2018-03-27T04:57:34.804Z,99.90
2018-03-27T04:58:38.004Z,99.90
2018-03-27T04:59:41.231Z,99.90
2018-03-27T05:00:44.707Z,99.90
2018-03-27T05:01:47.928Z,99.90
2018-03-27T05:02:51.172Z,99.90
2018-03-27T05:03:54.376Z,99.90
2018-03-27T05:04:57.589Z,99.90
2018-03-27T05:06:01.574Z,99.90
2018-03-27T05:07:05.810Z,99.90
2018-03-27T05:08:09.049Z,99.90
2018-03-27T05:09:12.265Z,99.90
2018-03-27T05:10:16.378Z,99.90
2018-03-27T05:11:19.599Z,99.90
2018-03-27T05:12:22.863Z,99.90
2018-03-27T05:13:26.073Z,99.90
2018-03-27T05:14:29.285Z,99.90
2018-03-27T05:15:33.273Z,99.90
2018-03-27T05:16:37.257Z,99.90
2018-03-27T05:17:40.495Z,99.90
2018-03-27T05:18:44.510Z,99.90
2018-03-27T05:19:47.800Z,99.90
2018-03-27T05:20:51.002Z,99.90
2018-03-27T05:21:54.236Z,99.90
2018-03-27T05:22:57.483Z,99.90
2018-03-27T05:24:00.690Z,99.90
2018-03-27T05:25:04.673Z,99.90
2018-03-27T05:26:08.663Z,99.90
2018-03-27T05:27:11.888Z,99.90
2018-03-27T05:28:15.096Z,99.90
2018-03-27T05:29:18.323Z,99.90
2018-03-27T05:30:22.328Z,99.90
2018-03-27T05:31:26.340Z,99.90
2018-03-27T05:32:30.307Z,99.90
2018-03-27T05:33:33.542Z,99.90
2018-03-27T05:34:36.785Z,99.90
2018-03-27T05:35:39.999Z,99.90
2018-03-27T05:36:43.331Z,99.90
2018-03-27T05:37:46.525Z,99.90
2018-03-27T05:38:49.748Z,99.90
2018-03-27T05:39:52.976Z,99.90
2018-03-27T05:40:56.245Z,99.90
2018-03-27T05:41:59.512Z,99.90
2018-03-27T05:43:02.726Z,99.90
2018-03-27T05:44:05.940Z,99.90
2018-03-27T05:45:09.938Z,99.90
2018-03-27T05:46:13.909Z,99.90
2018-03-27T05:47:17.163Z,99.90
2018-03-27T05:48:20.403Z,99.90
2018-03-27T05:49:24.491Z,99.90
2018-03-27T05:50:27.693Z,99.90
2018-03-27T05:51:31.684Z,99.90
2018-03-27T05:52:35.668Z,99.90
2018-03-27T05:53:38.906Z,99.90
2018-03-27T05:54:42.227Z,99.90
2018-03-27T05:55:45.680Z,99.90
2018-03-27T05:56:48.921Z,99.90
2018-03-27T05:57:52.917Z,99.90
2018-03-27T05:58:56.141Z,99.90
2018-03-27T05:59:59.382Z,99.90
2018-03-27T06:01:02.625Z,99.90
2018-03-27T06:02:05.857Z,99.90
2018-03-27T06:03:09.844Z,99.90
2018-03-27T06:04:13.064Z,99.90
2018-03-27T06:05:17.118Z,99.90
2018-03-27T06:06:20.304Z,99.90
2018-03-27T06:07:23.568Z,99.90
2018-03-27T06:08:26.772Z,99.90
2018-03-27T06:09:30.004Z,99.90
2018-03-27T06:10:33.242Z,99.90
2018-03-27T06:11:36.483Z,99.90
2018-03-27T06:12:39.704Z,99.90
2018-03-27T06:13:42.949Z,99.90
2018-03-27T06:14:46.176Z,99.90
2018-03-27T06:15:49.399Z,99.90
2018-03-27T06:16:52.607Z,99.90
2018-03-27T06:17:55.850Z,99.90
2018-03-27T06:18:59.836Z,99.90
2018-03-27T06:20:03.816Z,99.90
2018-03-27T06:21:07.053Z,99.90
2018-03-27T06:22:11.057Z,99.90
2018-03-27T06:23:14.270Z,99.90
2018-03-27T06:24:17.512Z,99.90
2018-03-27T06:25:20.795Z,99.90
2018-03-27T06:26:24.048Z,99.90
2018-03-27T06:27:27.240Z,99.90
2018-03-27T06:28:30.437Z,99.90
2018-03-27T06:29:33.694Z,99.90
2018-03-27T06:30:36.918Z,99.90
2018-03-27T06:31:40.400Z,99.90
2018-03-27T06:32:43.644Z,99.90
2018-03-27T06:33:46.958Z,99.90
2018-03-27T06:34:50.932Z,99.90
2018-03-27T06:35:54.159Z,99.90
2018-03-27T06:36:57.397Z,99.90
2018-03-27T06:38:00.761Z,99.90
2018-03-27T06:39:03.948Z,99.90
2018-03-27T06:40:07.161Z,99.90
2018-03-27T06:41:11.178Z,99.90
2018-03-27T06:42:14.408Z,99.90
2018-03-27T06:43:17.652Z,99.90
2018-03-27T06:44:20.881Z,99.90
2018-03-27T06:45:24.103Z,99.90
2018-03-27T06:46:28.081Z,99.90
2018-03-27T06:47:32.102Z,99.90
2018-03-27T06:48:36.081Z,99.90
2018-03-27T06:49:39.335Z,99.90
2018-03-27T06:50:42.552Z,99.90
2018-03-27T06:51:45.773Z,99.90
2018-03-27T06:52:49.031Z,99.90
2018-03-27T06:53:52.237Z,99.90
2018-03-27T06:54:55.477Z,99.90
2018-03-27T06:55:59.473Z,99.90
2018-03-27T06:57:02.687Z,99.90
2018-03-27T06:58:06.701Z,99.90
2018-03-27T06:59:09.909Z,99.90
2018-03-27T07:00:13.131Z,99.90
2018-03-27T07:01:16.396Z,99.90
2018-03-27T07:02:19.635Z,99.90
2018-03-27T07:03:23.636Z,99.90
2018-03-27T07:04:27.621Z,99.90
2018-03-27T07:05:30.883Z,99.90
2018-03-27T07:06:34.074Z,99.90
2018-03-27T07:07:37.277Z,99.90
2018-03-27T07:08:40.499Z,99.90
2018-03-27T07:09:43.854Z,99.90
2018-03-27T07:10:47.139Z,99.90
2018-03-27T07:11:50.291Z,99.90
2018-03-27T07:12:54.278Z,99.90
2018-03-27T07:13:57.509Z,99.90
2018-03-27T07:15:00.724Z,99.90
2018-03-27T07:16:03.962Z,99.90
2018-03-27T07:17:07.991Z,99.90
2018-03-27T07:18:11.222Z,99.90
2018-03-27T07:19:14.402Z,99.90
2018-03-27T07:20:18.436Z,99.90
2018-03-27T07:21:21.696Z,99.90
2018-03-27T07:22:24.887Z,99.90
2018-03-27T07:23:28.854Z,99.90
2018-03-27T07:24:32.887Z,99.90
2018-03-27T07:25:36.097Z,99.90
2018-03-27T07:26:39.318Z,99.90
2018-03-27T07:27:42.545Z,99.90
2018-03-27T07:28:45.797Z,99.90
2018-03-27T07:29:49.110Z,99.90
2018-03-27T07:30:52.328Z,99.90
2018-03-27T07:31:55.579Z,99.90
2018-03-27T07:32:58.796Z,99.90
2018-03-27T07:34:02.056Z,99.90
2018-03-27T07:35:05.299Z,99.90
2018-03-27T07:36:08.505Z,99.90
2018-03-27T07:37:11.721Z,99.90
2018-03-27T07:38:14.982Z,99.90
2018-03-27T07:39:18.186Z,99.90
2018-03-27T07:40:21.436Z,99.90
2018-03-27T07:41:24.728Z,99.90
2018-03-27T07:42:27.997Z,99.90
2018-03-27T07:43:31.206Z,99.90
2018-03-27T07:44:34.476Z,99.90
2018-03-27T07:45:37.675Z,99.90
2018-03-27T07:46:40.976Z,99.90
2018-03-27T07:47:44.213Z,99.90
2018-03-27T07:48:47.473Z,99.90
2018-03-27T07:49:50.796Z,99.90
2018-03-27T07:50:54.029Z,99.90
2018-03-27T07:51:57.250Z,99.90
2018-03-27T07:53:01.287Z,99.90
2018-03-27T07:54:05.454Z,99.90
2018-03-27T07:55:08.685Z,99.90
2018-03-27T07:56:11.899Z,99.90
2018-03-27T07:57:15.885Z,99.90
2018-03-27T07:58:19.145Z,99.90
2018-03-27T07:59:22.379Z,99.90
2018-03-27T08:00:26.357Z,99.90
2018-03-27T08:01:30.346Z,99.90
2018-03-27T08:02:33.566Z,99.90
2018-03-27T08:03:37.570Z,99.90
2018-03-27T08:04:41.535Z,99.90
2018-03-27T08:05:44.749Z,99.90
2018-03-27T08:06:47.978Z,99.90
2018-03-27T08:07:51.185Z,99.90
2018-03-27T08:08:54.513Z,99.90
2018-03-27T08:09:57.777Z,99.90
2018-03-27T08:11:01.803Z,99.90
2018-03-27T08:12:05.772Z,99.90
2018-03-27T08:13:09.800Z,99.90
2018-03-27T08:14:13.033Z,99.90
2018-03-27T08:15:16.250Z,99.90
2018-03-27T08:16:19.471Z,99.90
2018-03-27T08:17:22.719Z,99.90
2018-03-27T08:18:25.958Z,99.90
2018-03-27T08:19:29.282Z,99.90
2018-03-27T08:20:32.523Z,99.90
2018-03-27T08:21:35.764Z,99.90
2018-03-27T08:22:38.990Z,99.90
2018-03-27T08:23:42.249Z,99.90
2018-03-27T08:24:45.561Z,99.90
2018-03-27T08:25:48.750Z,99.90
2018-03-27T08:26:51.969Z,99.90
2018-03-27T08:27:55.237Z,99.90
2018-03-27T08:28:58.437Z,99.90
2018-03-27T08:30:01.674Z,99.90
2018-03-27T08:31:04.970Z,99.90
2018-03-27T08:32:08.177Z,99.90
2018-03-27T08:33:12.163Z,99.90
2018-03-27T08:34:16.184Z,99.90
2018-03-27T08:35:19.413Z,99.90
2018-03-27T08:36:22.719Z,99.90
2018-03-27T08:37:26.613Z,99.90
2018-03-27T08:38:29.852Z,99.90
2018-03-27T08:39:33.077Z,99.90
2018-03-27T08:40:36.304Z,99.90
2018-03-27T08:41:39.528Z,99.90
2018-03-27T08:42:42.768Z,99.90
2018-03-27T08:43:46.716Z,99.90
2018-03-27T08:44:49.969Z,99.90
2018-03-27T08:45:53.178Z,99.90
2018-03-27T08:46:56.415Z,99.90
2018-03-27T08:47:59.649Z,99.90
2018-03-27T08:49:02.858Z,99.90
2018-03-27T08:50:06.862Z,99.90
2018-03-27T08:51:10.826Z,99.90
2018-03-27T08:52:14.035Z,99.90
2018-03-27T08:53:18.008Z,99.90
2018-03-27T08:54:21.247Z,99.90
2018-03-27T08:55:24.478Z,99.90
2018-03-27T08:56:27.703Z,99.90
2018-03-27T08:57:30.936Z,99.90
2018-03-27T08:58:34.263Z,99.90
2018-03-27T08:59:38.245Z,99.90
2018-03-27T09:00:42.262Z,99.90
2018-03-27T09:01:45.447Z,99.90
2018-03-27T09:02:49.444Z,99.90
2018-03-27T09:03:53.437Z,99.90
2018-03-27T09:04:57.421Z,99.90
2018-03-27T09:06:00.632Z,99.90
2018-03-27T09:07:03.862Z,99.90
2018-03-27T09:08:07.081Z,99.90
2018-03-27T09:09:11.073Z,99.80
2018-03-27T09:10:14.990Z,99.80
2018-03-27T09:11:19.017Z,99.90
2018-03-27T09:12:22.231Z,99.90
2018-03-27T09:13:25.489Z,99.90
2018-03-27T09:14:28.695Z,99.90
2018-03-27T09:15:31.918Z,99.90
2018-03-27T09:16:35.913Z,99.90
2018-03-27T09:17:39.901Z,99.90
2018-03-27T09:18:43.121Z,99.90
2018-03-27T09:19:46.356Z,99.90
2018-03-27T09:20:49.575Z,99.40
2018-03-27T09:21:52.813Z,99.40
2018-03-27T09:22:56.120Z,99.30
2018-03-27T09:23:59.335Z,99.20
2018-03-27T09:25:02.589Z,99.20
2018-03-27T09:26:06.569Z,99.10
2018-03-27T09:27:09.798Z,99.10
2018-03-27T09:28:13.010Z,99.30
2018-03-27T09:29:16.233Z,99.80
2018-03-27T09:30:20.268Z,99.90
2018-03-27T09:31:23.496Z,99.90
2018-03-27T09:32:26.713Z,99.90
2018-03-27T09:33:30.096Z,99.90
2018-03-27T09:34:34.093Z,99.90
2018-03-27T09:35:38.808Z,99.90
2018-03-27T09:36:42.061Z,99.90
2018-03-27T09:37:45.304Z,99.90
2018-03-27T09:38:48.508Z,99.80
2018-03-27T09:39:51.725Z,99.50
2018-03-27T09:40:54.967Z,99.40
2018-03-27T09:41:58.164Z,98.70
2018-03-27T09:43:01.433Z,98.70
2018-03-27T09:44:04.675Z,98.40
2018-03-27T09:45:07.883Z,97.70
2018-03-27T09:46:11.130Z,97.80
2018-03-27T09:47:14.330Z,97.70
2018-03-27T09:48:18.440Z,97.40
2018-03-27T09:49:22.403Z,96.70
2018-03-27T09:50:25.837Z,96.40
2018-03-27T09:51:29.064Z,96.10
2018-03-27T09:52:32.293Z,96.20
2018-03-27T09:53:35.541Z,95.90
2018-03-27T09:54:38.766Z,96.00
2018-03-27T09:55:42.007Z,96.50
2018-03-27T09:56:45.291Z,96.20
2018-03-27T09:57:48.506Z,96.60
2018-03-27T09:58:51.702Z,96.90
2018-03-27T09:59:54.904Z,96.40
2018-03-27T10:00:58.134Z,96.20
2018-03-27T10:02:02.116Z,96.80
2018-03-27T10:03:05.331Z,96.80
2018-03-27T10:04:09.462Z,96.60
2018-03-27T10:05:12.699Z,96.60
2018-03-27T10:06:15.924Z,96.20
2018-03-27T10:07:19.185Z,96.20
2018-03-27T10:08:23.214Z,95.80
2018-03-27T10:09:26.429Z,95.80
2018-03-27T10:10:29.650Z,96.10
2018-03-27T10:11:33.667Z,95.70
2018-03-27T10:12:36.881Z,95.60
2018-03-27T10:13:40.106Z,94.70
2018-03-27T10:14:44.138Z,95.40
2018-03-27T10:15:47.409Z,95.40
2018-03-27T10:16:50.583Z,94.90
2018-03-27T10:17:54.571Z,93.70
2018-03-27T10:18:58.567Z,93.70
2018-03-27T10:20:02.578Z,94.00
2018-03-27T10:21:06.561Z,94.40
2018-03-27T10:22:09.819Z,94.40
2018-03-27T10:23:13.733Z,92.70
2018-03-27T10:24:16.958Z,92.70
2018-03-27T10:25:20.201Z,91.50
2018-03-27T10:26:23.430Z,90.80
2018-03-27T10:27:26.798Z,90.50
2018-03-27T10:28:29.960Z,90.50
2018-03-27T10:29:33.188Z,90.00
2018-03-27T10:30:36.442Z,90.30
2018-03-27T10:31:40.420Z,90.70
2018-03-27T10:32:43.650Z,90.50
2018-03-27T10:33:46.860Z,90.10
2018-03-27T10:34:50.082Z,90.00
2018-03-27T10:35:53.305Z,89.30
2018-03-27T10:36:56.528Z,90.10
2018-03-27T10:37:59.744Z,89.80
2018-03-27T10:39:03.740Z,88.00
2018-03-27T10:40:07.714Z,87.80
2018-03-27T10:41:10.938Z,87.80
2018-03-27T10:42:14.929Z,87.40
2018-03-27T10:43:18.160Z,87.30
2018-03-27T10:44:21.393Z,86.10
2018-03-27T10:45:25.415Z,85.90
2018-03-27T10:46:28.604Z,85.80
2018-03-27T10:47:31.824Z,85.70
2018-03-27T10:48:35.047Z,85.70
2018-03-27T10:49:38.265Z,85.90
2018-03-27T10:50:41.494Z,85.80
2018-03-27T10:51:44.740Z,86.10
2018-03-27T10:52:47.970Z,87.10
2018-03-27T10:53:51.962Z,85.80
2018-03-27T10:54:56.032Z,85.80
2018-03-27T10:55:59.225Z,85.80
2018-03-27T10:57:02.483Z,86.30
2018-03-27T10:58:05.738Z,87.00
2018-03-27T10:59:09.012Z,87.50
2018-03-27T11:00:12.295Z,86.90
2018-03-27T11:01:15.519Z,86.90
2018-03-27T11:02:18.768Z,86.40
2018-03-27T11:03:21.992Z,86.90
2018-03-27T11:04:25.258Z,86.30
2018-03-27T11:05:28.440Z,85.70
2018-03-27T11:06:31.696Z,85.80
2018-03-27T11:07:35.688Z,86.40
2018-03-27T11:08:39.685Z,87.60
2018-03-27T11:09:43.678Z,87.10
2018-03-27T11:10:47.690Z,86.40
2018-03-27T11:11:51.678Z,87.20
2018-03-27T11:12:54.999Z,87.10
2018-03-27T11:13:58.227Z,87.90
2018-03-27T11:15:01.448Z,87.50
2018-03-27T11:16:04.664Z,87.50
2018-03-27T11:17:07.889Z,87.10
2018-03-27T11:18:11.363Z,86.90
2018-03-27T11:19:14.584Z,87.40
2018-03-27T11:20:18.588Z,86.90
2018-03-27T11:21:21.799Z,86.90
2018-03-27T11:22:25.021Z,87.50
2018-03-27T11:23:28.343Z,87.60
2018-03-27T11:24:31.558Z,87.30
2018-03-27T11:25:34.811Z,86.90
2018-03-27T11:26:38.034Z,86.20
2018-03-27T11:27:41.321Z,85.90
2018-03-27T11:28:45.266Z,84.10
2018-03-27T11:29:49.243Z,83.90
2018-03-27T11:30:53.333Z,83.70
2018-03-27T11:31:56.556Z,83.60
2018-03-27T11:32:59.790Z,83.70
2018-03-27T11:34:03.035Z,84.10
2018-03-27T11:35:07.035Z,84.30
2018-03-27T11:36:10.287Z,84.20
2018-03-27T11:37:13.533Z,84.40
2018-03-27T11:38:16.776Z,83.50
2018-03-27T11:39:20.005Z,82.10
2018-03-27T11:40:23.225Z,81.80
2018-03-27T11:41:26.475Z,82.10
2018-03-27T11:42:29.704Z,80.50
2018-03-27T11:43:32.929Z,80.80
2018-03-27T11:44:36.211Z,79.60
2018-03-27T11:45:39.401Z,79.10
2018-03-27T11:46:42.632Z,78.20
2018-03-27T11:47:45.943Z,78.90
2018-03-27T11:48:49.161Z,78.70
2018-03-27T11:49:52.384Z,79.60
2018-03-27T11:50:55.616Z,78.50
2018-03-27T11:51:58.837Z,76.80
2018-03-27T11:53:02.851Z,70.00
2018-03-27T11:54:06.829Z,68.50
2018-03-27T11:55:10.852Z,70.10
2018-03-27T11:56:14.852Z,69.00
2018-03-27T11:57:18.081Z,68.90
2018-03-27T11:58:21.319Z,64.10
2018-03-27T11:59:24.559Z,62.20
2018-03-27T12:00:27.891Z,61.40
2018-03-27T12:01:31.130Z,63.80
2018-03-27T12:02:34.340Z,66.00
2018-03-27T12:03:38.338Z,68.40
2018-03-27T12:04:42.313Z,67.80
2018-03-27T12:05:45.549Z,67.80
2018-03-27T12:06:48.774Z,65.80
2018-03-27T12:07:52.038Z,64.40
2018-03-27T12:08:55.281Z,62.70
2018-03-27T12:09:58.521Z,60.60
2018-03-27T12:11:01.758Z,59.60
2018-03-27T12:12:04.988Z,57.00
2018-03-27T12:13:08.281Z,58.20
2018-03-27T12:14:11.497Z,58.60
2018-03-27T12:15:14.797Z,58.40
2018-03-27T12:16:18.779Z,57.70
2018-03-27T12:17:22.764Z,59.30
2018-03-27T12:18:26.728Z,58.40
2018-03-27T12:19:29.982Z,58.40
2018-03-27T12:20:33.191Z,59.80
2018-03-27T12:21:36.414Z,57.10
2018-03-27T12:22:40.419Z,53.20
2018-03-27T12:23:43.655Z,53.20
2018-03-27T12:24:46.928Z,51.20
2018-03-27T12:25:50.133Z,53.00
2018-03-27T12:26:53.364Z,53.10
2018-03-27T12:27:56.599Z,52.30
2018-03-27T12:28:59.816Z,48.50
2018-03-27T12:30:03.063Z,48.20
2018-03-27T12:31:06.290Z,48.90
2018-03-27T12:32:09.551Z,49.60
2018-03-27T12:33:13.558Z,50.80
2018-03-27T12:34:16.774Z,50.40
2018-03-27T12:35:20.375Z,51.50
2018-03-27T12:36:23.617Z,52.50
2018-03-27T12:37:26.848Z,53.30
2018-03-27T12:38:30.095Z,53.10
2018-03-27T12:39:33.362Z,53.40
2018-03-27T12:40:37.362Z,54.00
2018-03-27T12:41:41.352Z,53.90
2018-03-27T12:42:44.609Z,53.70
2018-03-27T12:43:47.849Z,52.30
2018-03-27T12:44:51.093Z,51.60
2018-03-27T12:45:54.314Z,53.40
2018-03-27T12:46:57.554Z,51.00
2018-03-27T12:48:00.791Z,49.20
2018-03-27T12:49:04.033Z,48.60
2018-03-27T12:50:07.248Z,47.70
2018-03-27T12:51:10.496Z,49.50
2018-03-27T12:52:13.733Z,50.50
2018-03-27T12:53:17.015Z,49.30
2018-03-27T12:54:20.200Z,50.30
2018-03-27T12:55:23.420Z,50.00
2018-03-27T12:56:26.651Z,50.00
2018-03-27T12:57:29.960Z,49.80
2018-03-27T12:58:33.145Z,47.70
2018-03-27T12:59:36.380Z,48.60
2018-03-27T13:00:39.619Z,48.20
2018-03-27T13:01:42.843Z,48.60
2018-03-27T13:02:46.829Z,46.30
2018-03-27T13:03:50.099Z,46.30
2018-03-27T13:04:53.328Z,46.30
2018-03-27T13:05:56.562Z,46.50
2018-03-27T13:06:59.819Z,47.20
2018-03-27T13:08:03.045Z,48.40
2018-03-27T13:09:07.078Z,49.80
2018-03-27T13:10:10.308Z,49.70
2018-03-27T13:11:13.647Z,49.90
2018-03-27T13:12:17.629Z,49.40
2018-03-27T13:13:20.861Z,49.40
2018-03-27T13:14:24.086Z,50.40
2018-03-27T13:15:28.091Z,54.50
2018-03-27T13:16:32.113Z,53.30
2018-03-27T13:17:35.358Z,53.30
2018-03-27T13:18:38.547Z,54.20
2018-03-27T13:19:42.535Z,55.30
2018-03-27T13:20:45.855Z,55.30
2018-03-27T13:21:49.832Z,57.50
2018-03-27T13:22:53.089Z,57.50
2018-03-27T13:23:56.301Z,63.80
2018-03-27T13:25:00.303Z,79.00
2018-03-27T13:26:04.359Z,82.00
2018-03-27T13:27:07.558Z,82.00
2018-03-27T13:28:10.794Z,83.40
2018-03-27T13:29:14.088Z,83.60
2018-03-27T13:30:17.370Z,83.50
2018-03-27T13:31:20.593Z,83.80
2018-03-27T13:32:23.897Z,83.60
2018-03-27T13:33:27.836Z,85.20
2018-03-27T13:34:31.054Z,85.10
2018-03-27T13:35:34.275Z,85.10
2018-03-27T13:36:38.265Z,84.10
2018-03-27T13:37:41.528Z,83.90
2018-03-27T13:38:44.753Z,82.30
2018-03-27T13:39:48.009Z,82.30
2018-03-27T13:40:51.264Z,83.40
2018-03-27T13:41:54.508Z,83.80